CYKJ

Key Lake Airport

Key Lake, Saskatchewan, Canada
TAF CYKJ 261238Z 2613/2624 25008KT P6SM FEW080 BECMG 2614/2616 29012KT FM261700 30015G25KT P6SM SCT030 TEMPO 2617/2624 BKN030 RMK FCST BASED ON AUTO OBS. NXT FCST BY 261900Z
Issued Valid From Valid To
Apr-26 @ 12:38 UTC
(44 minutes ago)
Apr-26 @ 13:00 UTC
(22 minutes ago)
Apr-27 @ 00:00 UTC
(in 11 hours)
Apr-26 @ 13:00 to Apr-26 @ 14:00
TAF CYKJ 261238Z 2613/2624 25008KT P6SM FEW080
Wind Visibility Clouds
250° at 8 knots Greater than 6 miles
  • Few at 8,000' AGL
Becoming Apr-26 @ 14:00 to Apr-26 @ 17:00
BECMG 2614/2616 29012KT
Wind Visibility Clouds
290° at 12 knots Greater than 6 miles
  • Few at 8,000' AGL
From Apr-26 @ 17:00 to Apr-27 @ 00:00
FM261700 30015G25KT P6SM SCT030
Wind Visibility Clouds
300° at 15 knots
 Gusting to 25 knots
Greater than 6 miles
  • Scattered at 3,000' AGL
Temporary Apr-26 @ 17:00 to Apr-27 @ 00:00
TEMPO 2617/2624 BKN030 RMK FCST BASED ON AUTO OBS. NXT FCST BY 261900Z
Clouds
  • Broken at 3,000' AGL
TAF CYKJ 261238Z 2613/2624 25008KT P6SM FEW080 BECMG 2614/2616 29012KT FM261700 30015G25KT P6SM SCT030 TEMPO 2617/2624 BKN030 RMK FCST BASED ON AUTO OBS. NXT FCST BY 261900Z
Issued Apr-26 @ 12:38 UTC
(44 minutes ago)
Valid From Apr-26 @ 13:00 UTC
(22 minutes ago)
Valid To Apr-27 @ 00:00 UTC
(in 11 hours)
Apr-26 @ 13:00 - Apr-26 @ 14:00
Wind Visibility
250° at 8 knots Greater than 6 miles
Clouds
  • Few at 8,000' AGL
Becoming Apr-26 @ 14:00 - Apr-26 @ 17:00
Wind Visibility
290° at 12 knots Greater than 6 miles
Clouds
  • Few at 8,000' AGL
From Apr-26 @ 17:00 - Apr-27 @ 00:00
Wind Visibility
300° at 15 knots
 Gusting to 25 knots
Greater than 6 miles
Clouds
  • Scattered at 3,000' AGL
Temporary Apr-26 @ 17:00 - Apr-27 @ 00:00
Clouds
  • Broken at 3,000' AGL